createdAt,value
2018-01-22T05:41:35.223Z,-0.20
2018-01-22T05:44:01.752Z,-0.20
2018-01-22T05:46:28.349Z,-0.30
2018-01-22T05:48:55.388Z,-0.40
2018-01-22T05:51:21.896Z,-0.30
2018-01-22T05:53:49.687Z,-0.40
2018-01-22T05:56:16.546Z,-0.40
2018-01-22T05:58:43.151Z,-0.40
2018-01-22T06:01:10.272Z,-0.40
2018-01-22T06:03:36.717Z,-0.40
2018-01-22T06:06:03.295Z,-0.40
2018-01-22T06:08:30.776Z,-0.40
2018-01-22T06:10:58.646Z,-0.40
2018-01-22T06:13:25.324Z,-0.50
2018-01-22T06:15:51.887Z,-0.40
2018-01-22T06:18:18.408Z,-0.40
2018-01-22T06:20:44.947Z,-0.40
2018-01-22T06:23:11.555Z,-0.40
2018-01-22T06:25:38.047Z,-0.30
2018-01-22T06:28:04.660Z,-0.40
2018-01-22T06:30:31.142Z,-0.40
2018-01-22T06:32:57.556Z,-0.30
2018-01-22T06:35:24.183Z,-0.40
2018-01-22T06:37:50.732Z,-0.40
2018-01-22T06:40:17.264Z,-0.30
2018-01-22T06:42:43.812Z,-0.30
2018-01-22T06:45:10.303Z,-0.20
2018-01-22T06:47:36.839Z,-0.20
2018-01-22T06:50:04.231Z,-0.20
2018-01-22T06:52:30.804Z,-0.20
2018-01-22T06:54:57.412Z,-0.30
2018-01-22T06:57:24.286Z,-0.20
2018-01-22T06:59:50.756Z,-0.20
2018-01-22T07:02:17.565Z,-0.20
2018-01-22T07:04:45.203Z,-0.20
2018-01-22T07:07:12.180Z,-0.10
2018-01-22T07:09:38.771Z,0.00
2018-01-22T07:12:05.313Z,0.00
2018-01-22T07:14:31.764Z,-0.10
2018-01-22T07:16:58.337Z,-0.10
2018-01-22T07:19:24.727Z,-0.10
2018-01-22T07:21:52.017Z,0.00
2018-01-22T07:24:18.587Z,0.00
2018-01-22T07:26:45.139Z,0.10
2018-01-22T07:29:11.599Z,0.10
2018-01-22T07:31:38.135Z,0.10
2018-01-22T07:34:04.979Z,0.10
2018-01-22T07:36:31.582Z,0.10
2018-01-22T07:38:58.068Z,0.00
2018-01-22T07:41:24.672Z,0.10
2018-01-22T07:43:51.115Z,0.10
2018-01-22T07:46:17.967Z,0.10
2018-01-22T07:48:44.544Z,0.10
2018-01-22T07:51:11.101Z,0.20
2018-01-22T07:53:37.600Z,0.20
2018-01-22T07:56:04.189Z,0.20
2018-01-22T07:58:30.642Z,0.20
2018-01-22T08:00:57.547Z,0.20
2018-01-22T08:03:24.028Z,0.10
2018-01-22T08:05:50.410Z,0.10
2018-01-22T08:08:17.165Z,0.10
2018-01-22T08:10:44.295Z,0.10
2018-01-22T08:13:10.824Z,0.10
2018-01-22T08:15:37.684Z,0.10
2018-01-22T08:18:04.168Z,0.10
2018-01-22T08:20:30.772Z,0.20
2018-01-22T08:22:57.580Z,0.20
2018-01-22T08:25:24.431Z,0.20
2018-01-22T08:27:50.924Z,0.10
2018-01-22T08:30:17.457Z,0.10
2018-01-22T08:32:44.006Z,0.10
2018-01-22T08:35:10.543Z,0.10
2018-01-22T08:37:37.117Z,0.10
2018-01-22T08:40:03.580Z,0.00
2018-01-22T08:42:30.160Z,0.00
2018-01-22T08:44:58.216Z,0.00
2018-01-22T08:47:24.727Z,0.00
2018-01-22T08:49:51.360Z,0.00
2018-01-22T08:52:17.792Z,0.00
2018-01-22T08:54:44.331Z,0.00
2018-01-22T08:57:10.960Z,0.00
2018-01-22T08:59:37.547Z,0.20
2018-01-22T09:02:04.320Z,0.10
2018-01-22T09:04:31.071Z,0.10
2018-01-22T09:06:57.655Z,0.20
2018-01-22T09:09:24.166Z,0.20
2018-01-22T09:11:51.041Z,0.30
2018-01-22T09:14:17.568Z,0.30
2018-01-22T09:16:44.044Z,0.50
2018-01-22T09:19:10.424Z,0.50
2018-01-22T09:21:36.852Z,0.50
2018-01-22T09:24:03.451Z,0.40
2018-01-22T09:26:29.980Z,0.50
2018-01-22T09:28:56.412Z,0.50
2018-01-22T09:31:22.967Z,0.50
2018-01-22T09:33:49.568Z,0.50
2018-01-22T09:36:16.296Z,0.60
2018-01-22T09:38:42.928Z,0.70
2018-01-22T09:41:09.395Z,0.60
2018-01-22T09:43:35.931Z,0.70
2018-01-22T09:46:02.468Z,0.80
2018-01-22T09:48:29.090Z,0.80
2018-01-22T09:50:55.644Z,0.90
2018-01-22T09:53:22.796Z,0.90
2018-01-22T09:55:49.837Z,0.80
2018-01-22T09:58:16.436Z,0.80
2018-01-22T10:00:42.924Z,0.90
2018-01-22T10:03:09.488Z,0.90
2018-01-22T10:05:35.937Z,0.90
2018-01-22T10:08:02.837Z,0.90
2018-01-22T10:10:29.359Z,0.90
2018-01-22T10:12:55.948Z,0.90
2018-01-22T10:15:22.500Z,0.90
2018-01-22T10:17:48.964Z,1.00
2018-01-22T10:20:15.545Z,1.00
2018-01-22T10:22:42.068Z,1.10
2018-01-22T10:25:08.600Z,1.00
2018-01-22T10:27:35.264Z,1.10
2018-01-22T10:30:01.950Z,1.10
2018-01-22T10:32:28.581Z,1.10
2018-01-22T10:34:55.044Z,1.10
2018-01-22T10:37:21.570Z,1.10
2018-01-22T10:39:48.319Z,1.20
2018-01-22T10:42:14.679Z,1.20
2018-01-22T10:44:41.249Z,1.30
2018-01-22T10:47:07.780Z,1.40
2018-01-22T10:49:34.219Z,1.40
2018-01-22T10:52:00.678Z,1.30
2018-01-22T10:54:27.643Z,1.30
2018-01-22T10:56:54.146Z,1.30
2018-01-22T10:59:20.708Z,1.30
2018-01-22T11:01:47.267Z,1.20
2018-01-22T11:04:13.780Z,1.30
2018-01-22T11:06:41.207Z,1.30
2018-01-22T11:09:07.800Z,1.20
2018-01-22T11:11:34.293Z,1.20
2018-01-22T11:14:00.829Z,1.10
2018-01-22T11:16:27.412Z,1.20
2018-01-22T11:18:54.676Z,1.20
2018-01-22T11:21:21.697Z,1.20
2018-01-22T11:23:48.183Z,1.20
2018-01-22T11:26:14.780Z,1.30
2018-01-22T11:28:41.163Z,1.30
2018-01-22T11:31:07.787Z,1.30
2018-01-22T11:33:34.416Z,1.20
2018-01-22T11:36:01.485Z,1.20
2018-01-22T11:38:28.243Z,1.30
2018-01-22T11:40:54.851Z,1.30
2018-01-22T11:43:21.379Z,1.30
2018-01-22T11:45:47.960Z,1.20
2018-01-22T11:48:14.455Z,1.10
2018-01-22T11:50:41.037Z,1.20
2018-01-22T11:53:07.584Z,1.30
2018-01-22T11:55:34.366Z,1.30
2018-01-22T11:58:02.180Z,1.30
2018-01-22T12:00:28.673Z,1.40
2018-01-22T12:02:55.520Z,1.40
2018-01-22T12:05:22.116Z,1.30
2018-01-22T12:07:48.789Z,1.30
2018-01-22T12:10:15.508Z,1.30
2018-01-22T12:12:42.004Z,1.30
2018-01-22T12:15:08.373Z,1.40
2018-01-22T12:17:35.331Z,1.40
2018-01-22T12:20:01.937Z,1.20
2018-01-22T12:22:28.409Z,1.10
2018-01-22T12:24:54.839Z,1.00
2018-01-22T12:27:21.459Z,1.00
2018-01-22T12:29:48.007Z,1.00
2018-01-22T12:32:14.579Z,1.00
2018-01-22T12:34:40.940Z,0.90
2018-01-22T12:37:07.919Z,0.80
2018-01-22T12:39:34.497Z,0.70
2018-01-22T12:42:01.004Z,0.80
2018-01-22T12:44:28.471Z,0.80
2018-01-22T12:46:55.032Z,0.80
2018-01-22T12:49:21.512Z,0.90
2018-01-22T12:51:48.045Z,0.90
2018-01-22T12:54:14.737Z,1.00
2018-01-22T12:56:41.745Z,1.00
2018-01-22T12:59:08.259Z,1.10
2018-01-22T13:01:34.627Z,1.10
2018-01-22T13:04:01.047Z,1.00
2018-01-22T13:06:27.601Z,1.00
2018-01-22T13:08:54.452Z,1.10
2018-01-22T13:11:20.888Z,1.00
2018-01-22T13:13:47.544Z,1.00
2018-01-22T13:16:14.089Z,1.00
2018-01-22T13:18:40.977Z,1.00
2018-01-22T13:21:07.384Z,0.90
2018-01-22T13:23:34.223Z,0.80
2018-01-22T13:26:00.773Z,0.80
2018-01-22T13:28:27.335Z,0.80
2018-01-22T13:30:53.951Z,0.80
2018-01-22T13:33:20.371Z,0.80
2018-01-22T13:35:46.912Z,0.80
2018-01-22T13:38:13.535Z,0.70
2018-01-22T13:40:46.152Z,0.60
2018-01-22T13:43:12.680Z,0.70
2018-01-22T13:45:39.192Z,0.70
2018-01-22T13:48:05.793Z,0.70
2018-01-22T13:50:32.324Z,0.60
2018-01-22T13:53:00.079Z,0.60
2018-01-22T13:55:26.578Z,0.50
2018-01-22T13:57:53.374Z,0.50
2018-01-22T14:00:19.983Z,0.40
2018-01-22T14:02:46.484Z,0.40
2018-01-22T14:05:13.070Z,0.30
2018-01-22T14:07:39.544Z,0.30
2018-01-22T14:10:06.077Z,0.40
2018-01-22T14:12:32.734Z,0.40
2018-01-22T14:14:59.212Z,0.40
2018-01-22T14:17:25.686Z,0.40
2018-01-22T14:19:52.235Z,0.60
2018-01-22T14:22:18.828Z,0.50
2018-01-22T14:24:45.355Z,0.40
2018-01-22T14:27:11.896Z,0.50
2018-01-22T14:29:38.363Z,0.50
2018-01-22T14:32:04.904Z,0.40
2018-01-22T14:34:31.500Z,0.40
2018-01-22T14:36:58.072Z,0.40
2018-01-22T14:39:24.553Z,0.40
2018-01-22T14:41:51.032Z,0.30
2018-01-22T14:44:17.628Z,0.30
2018-01-22T14:46:44.060Z,0.30
2018-01-22T14:49:10.682Z,0.30
2018-01-22T14:51:38.436Z,0.30
2018-01-22T14:54:05.028Z,0.20
2018-01-22T14:56:31.491Z,0.20
2018-01-22T14:58:58.032Z,0.00
2018-01-22T15:01:24.583Z,0.00
2018-01-22T15:03:51.208Z,-0.10
2018-01-22T15:06:18.528Z,-0.10
2018-01-22T15:08:45.148Z,0.00
2018-01-22T15:11:11.972Z,0.00
2018-01-22T15:13:39.420Z,0.00
2018-01-22T15:16:05.964Z,0.00
2018-01-22T15:18:32.811Z,0.10
2018-01-22T15:34:16.832Z,-0.10
2018-01-22T15:36:43.627Z,-0.20
2018-01-22T15:39:10.149Z,-0.20
2018-01-22T15:41:36.781Z,-0.20
2018-01-22T15:44:03.236Z,-0.20
2018-01-22T15:46:29.815Z,-0.20
2018-01-22T15:48:56.380Z,-0.20
2018-01-22T15:51:22.751Z,-0.10
2018-01-22T15:53:49.443Z,-0.10
2018-01-22T15:56:16.250Z,-0.10
2018-01-22T15:58:42.795Z,-0.20
2018-01-22T16:01:09.240Z,-0.10
2018-01-22T16:03:35.821Z,-0.20
2018-01-22T16:06:02.379Z,-0.20
2018-01-22T16:08:28.948Z,-0.10
2018-01-22T16:10:55.492Z,-0.10
2018-01-22T16:13:22.020Z,-0.20
2018-01-22T16:15:48.872Z,-0.10
2018-01-22T16:18:15.420Z,-0.20
2018-01-22T16:20:41.968Z,-0.20
2018-01-22T16:23:08.535Z,-0.20
2018-01-22T16:25:34.972Z,-0.20
2018-01-22T16:28:01.480Z,-0.20
2018-01-22T16:30:28.024Z,-0.20
2018-01-22T16:32:54.545Z,-0.20
2018-01-22T16:35:21.151Z,-0.20
2018-01-22T16:37:47.552Z,-0.20
2018-01-22T16:40:14.451Z,-0.20
2018-01-22T16:42:41.053Z,-0.40
2018-01-22T16:45:08.528Z,-0.40
2018-01-22T17:27:34.264Z,-0.10
2018-01-22T17:30:00.801Z,-0.20
2018-01-22T17:32:27.418Z,-0.20
2018-01-22T17:34:55.104Z,-0.20
2018-01-22T17:37:21.611Z,-0.30
2018-01-22T17:39:48.209Z,-0.30
2018-01-22T17:42:14.664Z,-0.30
2018-01-22T17:44:41.219Z,-0.30
2018-01-22T17:47:07.680Z,-0.30
2018-01-22T17:49:34.452Z,-0.30
2018-01-22T17:52:01.440Z,-0.30
2018-01-22T17:54:28.286Z,-0.30
2018-01-22T17:56:54.692Z,-0.20
2018-01-22T17:59:22.220Z,-0.30
2018-01-22T18:01:48.897Z,-0.30
2018-01-22T18:04:15.454Z,-0.20
2018-01-22T18:06:41.875Z,-0.30
2018-01-22T18:09:08.448Z,-0.30
2018-01-22T18:11:34.993Z,-0.40
2018-01-22T18:14:01.511Z,-0.40
2018-01-22T18:16:28.068Z,-0.50
2018-01-22T18:18:54.927Z,-0.50
2018-01-22T18:21:21.382Z,-0.40
2018-01-22T18:23:47.975Z,-0.50
2018-01-22T18:26:14.466Z,-0.50
2018-01-22T18:28:41.001Z,-0.50
2018-01-22T18:31:07.540Z,-0.50
2018-01-22T18:33:34.296Z,-0.40
2018-01-22T18:36:01.276Z,-0.40
2018-01-22T18:38:27.751Z,-0.30
2018-01-22T18:40:54.332Z,-0.40
2018-01-22T18:43:21.108Z,-0.40
2018-01-22T18:45:48.046Z,-0.50
2018-01-22T18:48:14.617Z,-0.60
2018-01-22T18:50:41.037Z,-0.50
2018-01-22T18:53:07.883Z,-0.50
2018-01-22T18:55:34.491Z,-0.40
2018-01-22T18:58:01.316Z,-0.40
2018-01-22T19:00:27.771Z,-0.50
2018-01-22T19:02:54.370Z,-0.50
2018-01-22T19:05:20.917Z,-0.50
2018-01-22T19:07:47.417Z,-0.60
2018-01-22T19:10:13.972Z,-0.60
2018-01-22T19:12:40.590Z,-0.60
2018-01-22T19:15:07.077Z,-0.70
2018-01-22T19:17:36.072Z,-0.80
2018-01-22T19:20:02.611Z,-0.70
2018-01-22T19:22:29.125Z,-0.70
2018-01-22T19:24:55.679Z,-0.70
2018-01-22T19:27:23.852Z,-0.60
2018-01-22T19:29:50.860Z,-0.60
2018-01-22T19:32:17.462Z,-0.50
2018-01-22T19:34:45.165Z,-0.50
2018-01-22T19:37:11.781Z,-0.50
2018-01-22T19:39:38.624Z,-0.50
2018-01-22T19:42:06.663Z,-0.50
2018-01-22T19:44:33.177Z,-0.50
2018-01-22T19:47:00.629Z,-0.40
2018-01-22T19:49:27.128Z,-0.40
2018-01-22T19:51:53.696Z,-0.30
2018-01-22T19:54:20.151Z,-0.20
2018-01-22T19:56:46.769Z,-0.10
2018-01-22T19:59:13.200Z,-0.20
2018-01-22T20:01:40.100Z,-0.10
2018-01-22T20:04:06.924Z,-0.20
2018-01-22T20:06:33.459Z,0.00
2018-01-22T20:09:00.076Z,-0.10
2018-01-22T20:11:26.512Z,-0.10
2018-01-22T20:13:53.116Z,0.00
2018-01-22T20:16:19.604Z,-0.10
2018-01-22T20:18:46.136Z,-0.20
2018-01-22T20:21:12.740Z,-0.30
2018-01-22T20:23:39.868Z,-0.30
2018-01-22T20:26:06.312Z,-0.30
2018-01-22T20:28:32.935Z,-0.40
2018-01-22T20:30:59.432Z,-0.40
2018-01-22T20:33:26.036Z,-0.40
2018-01-22T20:35:52.504Z,-0.40
2018-01-22T20:38:19.073Z,-0.40
2018-01-22T20:40:45.628Z,-0.40
2018-01-22T20:43:12.111Z,-0.30
2018-01-22T20:45:38.629Z,-0.40
2018-01-22T20:48:05.187Z,-0.30
2018-01-22T20:50:31.740Z,-0.30
2018-01-22T20:52:58.304Z,-0.40
2018-01-22T20:55:25.076Z,-0.40
2018-01-22T20:57:51.639Z,-0.30
2018-01-22T21:00:19.552Z,-0.20
2018-01-22T21:02:47.197Z,-0.20
2018-01-22T21:05:14.047Z,-0.10
2018-01-22T21:07:40.867Z,-0.10
2018-01-22T21:10:07.377Z,-0.10
2018-01-22T21:12:34.211Z,-0.10
2018-01-22T21:15:00.852Z,-0.10
2018-01-22T21:17:27.295Z,0.00
2018-01-22T21:19:53.872Z,0.10
2018-01-22T21:22:20.276Z,0.10
2018-01-22T21:24:47.172Z,0.10
2018-01-22T21:27:14.132Z,0.10
2018-01-22T21:29:40.499Z,0.00
2018-01-22T21:32:06.932Z,0.10
2018-01-22T21:34:33.348Z,0.00
2018-01-22T21:37:01.464Z,0.00
2018-01-22T21:39:29.738Z,0.10
2018-01-22T21:41:56.164Z,0.10
2018-01-22T21:44:24.051Z,0.00
2018-01-22T21:46:50.704Z,-0.10
2018-01-22T21:49:17.149Z,0.00
2018-01-22T21:51:44.684Z,0.00
2018-01-22T21:54:11.210Z,0.00
2018-01-22T21:56:37.768Z,0.00
2018-01-22T21:59:04.240Z,-0.10
2018-01-22T22:01:30.996Z,-0.20
2018-01-22T22:03:57.956Z,-0.20
2018-01-22T22:06:24.488Z,-0.40
2018-01-22T22:08:51.029Z,-0.40
2018-01-22T22:11:17.870Z,-0.40
2018-01-22T22:13:44.363Z,-0.30
2018-01-22T22:16:10.920Z,-0.30
2018-01-22T22:18:37.410Z,-0.40
2018-01-22T22:21:03.948Z,-0.40
2018-01-22T22:23:30.576Z,-0.50
2018-01-22T22:25:57.953Z,-0.50
2018-01-22T22:28:24.825Z,-0.40
2018-01-22T22:30:51.369Z,-0.40
2018-01-22T22:33:18.005Z,-0.50
2018-01-22T22:35:44.753Z,-0.40
2018-01-22T22:38:11.139Z,-0.40
2018-01-22T22:40:37.811Z,-0.30
2018-01-22T22:43:04.303Z,-0.30
2018-01-22T22:45:30.871Z,-0.30
2018-01-22T22:47:57.458Z,-0.20
2018-01-22T22:50:24.523Z,-0.40
2018-01-22T22:52:51.091Z,-0.40
2018-01-22T22:55:17.672Z,-0.30
2018-01-22T22:57:44.125Z,-0.30
2018-01-22T23:00:10.743Z,-0.40
2018-01-22T23:02:38.064Z,-0.40
2018-01-22T23:05:04.768Z,-0.30
2018-01-22T23:07:31.171Z,-0.40
2018-01-22T23:09:58.106Z,-0.40
2018-01-22T23:12:25.196Z,-0.30
2018-01-22T23:14:51.723Z,-0.20
2018-01-22T23:17:18.297Z,-0.10
2018-01-22T23:19:45.084Z,-0.10
